sensor_id;sensor_type;location;lat;lon;timestamp;pressure;altitude;pressure_sealevel;temperature;humidity
62978;BME280;49073;42.352;23.808;2023-11-19T00:01:39;94521.16;;;3.18;69.38
62978;BME280;49073;42.352;23.808;2023-11-19T00:04:39;94525.50;;;3.14;69.60
62978;BME280;49073;42.352;23.808;2023-11-19T00:07:40;94522.84;;;3.14;69.57
62978;BME280;49073;42.352;23.808;2023-11-19T00:10:43;94524.22;;;3.11;69.88
62978;BME280;49073;42.352;23.808;2023-11-19T00:13:43;94532.31;;;3.15;69.60
62978;BME280;49073;42.352;23.808;2023-11-19T00:16:45;94525.63;;;3.17;70.31
62978;BME280;49073;42.352;23.808;2023-11-19T00:19:45;94531.69;;;3.18;69.99
62978;BME280;49073;42.352;23.808;2023-11-19T00:22:47;94533.38;;;3.14;69.88
62978;BME280;49073;42.352;23.808;2023-11-19T00:25:51;94527.47;;;3.08;70.05
62978;BME280;49073;42.352;23.808;2023-11-19T00:28:51;94549.34;;;3.09;70.19
62978;BME280;49073;42.352;23.808;2023-11-19T00:31:52;94548.09;;;3.15;70.52
62978;BME280;49073;42.352;23.808;2023-11-19T00:34:53;94543.75;;;3.10;70.43
62978;BME280;49073;42.352;23.808;2023-11-19T00:37:53;94543.75;;;3.10;70.49
62978;BME280;49073;42.352;23.808;2023-11-19T00:40:54;94544.53;;;3.11;70.89
62978;BME280;49073;42.352;23.808;2023-11-19T00:43:54;94544.06;;;3.09;70.17
62978;BME280;49073;42.352;23.808;2023-11-19T00:46:55;94556.16;;;3.10;70.71
62978;BME280;49073;42.352;23.808;2023-11-19T00:49:55;94550.25;;;3.04;70.92
62978;BME280;49073;42.352;23.808;2023-11-19T00:52:56;94542.19;;;3.09;70.90
62978;BME280;49073;42.352;23.808;2023-11-19T00:55:56;94543.59;;;3.07;70.76
62978;BME280;49073;42.352;23.808;2023-11-19T00:59:03;94541.59;;;3.03;71.05
62978;BME280;49073;42.352;23.808;2023-11-19T01:02:04;94542.66;;;3.02;70.79
62978;BME280;49073;42.352;23.808;2023-11-19T01:05:07;94541.13;;;3.01;70.86
62978;BME280;49073;42.352;23.808;2023-11-19T01:08:08;94545.91;;;2.99;70.90
62978;BME280;49073;42.352;23.808;2023-11-19T01:11:11;94537.41;;;3.02;70.92
62978;BME280;49073;42.352;23.808;2023-11-19T01:14:20;94533.22;;;3.01;70.85
62978;BME280;49073;42.352;23.808;2023-11-19T01:17:20;94548.41;;;3.04;71.25
62978;BME280;49073;42.352;23.808;2023-11-19T01:20:21;94539.09;;;2.98;71.22
62978;BME280;49073;42.352;23.808;2023-11-19T01:23:21;94542.66;;;2.94;71.59
62978;BME280;49073;42.352;23.808;2023-11-19T01:26:21;94544.19;;;2.95;71.61
62978;BME280;49073;42.352;23.808;2023-11-19T01:29:22;94544.38;;;2.98;71.76
62978;BME280;49073;42.352;23.808;2023-11-19T01:32:22;94547.28;;;2.97;71.59
62978;BME280;49073;42.352;23.808;2023-11-19T01:35:24;94550.72;;;2.97;71.65
62978;BME280;49073;42.352;23.808;2023-11-19T01:38:24;94543.28;;;2.99;71.69
62978;BME280;49073;42.352;23.808;2023-11-19T01:41:25;94531.06;;;3.03;71.74
62978;BME280;49073;42.352;23.808;2023-11-19T01:44:25;94530.28;;;3.03;71.37
62978;BME280;49073;42.352;23.808;2023-11-19T01:47:26;94511.38;;;3.01;71.03
62978;BME280;49073;42.352;23.808;2023-11-19T01:50:27;94522.22;;;2.99;70.83
62978;BME280;49073;42.352;23.808;2023-11-19T01:53:27;94527.97;;;3.01;70.60
62978;BME280;49073;42.352;23.808;2023-11-19T01:56:29;94519.13;;;2.97;70.92
62978;BME280;49073;42.352;23.808;2023-11-19T01:59:30;94529.03;;;3.00;71.36
62978;BME280;49073;42.352;23.808;2023-11-19T02:02:31;94536.16;;;3.00;71.50
62978;BME280;49073;42.352;23.808;2023-11-19T02:05:31;94525.47;;;2.96;71.17
62978;BME280;49073;42.352;23.808;2023-11-19T02:08:32;94536.00;;;2.96;71.92
62978;BME280;49073;42.352;23.808;2023-11-19T02:11:33;94531.22;;;2.98;71.00
62978;BME280;49073;42.352;23.808;2023-11-19T02:14:34;94531.81;;;2.95;71.23
62978;BME280;49073;42.352;23.808;2023-11-19T02:17:35;94521.75;;;2.97;70.80
62978;BME280;49073;42.352;23.808;2023-11-19T02:20:37;94528.09;;;2.96;70.95
62978;BME280;49073;42.352;23.808;2023-11-19T02:23:37;94526.69;;;2.99;71.31
62978;BME280;49073;42.352;23.808;2023-11-19T02:26:46;94529.34;;;2.99;70.97
62978;BME280;49073;42.352;23.808;2023-11-19T02:29:50;94529.31;;;2.90;70.75
62978;BME280;49073;42.352;23.808;2023-11-19T02:32:51;94531.06;;;3.03;71.03
62978;BME280;49073;42.352;23.808;2023-11-19T02:35:51;94526.25;;;2.97;70.67
62978;BME280;49073;42.352;23.808;2023-11-19T02:38:51;94537.22;;;2.90;71.19
62978;BME280;49073;42.352;23.808;2023-11-19T02:41:52;94536.16;;;3.00;71.10
62978;BME280;49073;42.352;23.808;2023-11-19T02:44:53;94544.97;;;2.95;71.83
62978;BME280;49073;42.352;23.808;2023-11-19T02:47:54;94527.63;;;2.94;71.25
62978;BME280;49073;42.352;23.808;2023-11-19T02:50:55;94536.44;;;2.89;71.39
62978;BME280;49073;42.352;23.808;2023-11-19T02:53:58;94528.69;;;2.93;71.89
62978;BME280;49073;42.352;23.808;2023-11-19T02:56:59;94525.00;;;2.85;71.50
62978;BME280;49073;42.352;23.808;2023-11-19T03:00:01;94517.22;;;2.89;71.72
62978;BME280;49073;42.352;23.808;2023-11-19T03:03:12;94527.16;;;2.92;71.41
62978;BME280;49073;42.352;23.808;2023-11-19T03:06:20;94534.09;;;2.88;71.69
62978;BME280;49073;42.352;23.808;2023-11-19T03:09:21;94535.66;;;2.89;71.34
62978;BME280;49073;42.352;23.808;2023-11-19T03:12:22;94530.72;;;2.87;71.73
62978;BME280;49073;42.352;23.808;2023-11-19T03:15:22;94530.88;;;2.91;70.93
62978;BME280;49073;42.352;23.808;2023-11-19T03:18:23;94519.25;;;2.83;71.55
62978;BME280;49073;42.352;23.808;2023-11-19T03:21:29;94509.97;;;2.77;71.90
62978;BME280;49073;42.352;23.808;2023-11-19T03:24:29;94526.81;;;2.76;71.84
62978;BME280;49073;42.352;23.808;2023-11-19T03:27:30;94531.00;;;2.77;70.90
62978;BME280;49073;42.352;23.808;2023-11-19T03:30:31;94531.78;;;2.78;70.96
62978;BME280;49073;42.352;23.808;2023-11-19T03:33:32;94540.28;;;2.74;71.37
62978;BME280;49073;42.352;23.808;2023-11-19T03:36:33;94543.22;;;2.73;71.20
62978;BME280;49073;42.352;23.808;2023-11-19T03:39:34;94546.63;;;2.73;71.31
62978;BME280;49073;42.352;23.808;2023-11-19T03:42:34;94554.50;;;2.73;71.20
62978;BME280;49073;42.352;23.808;2023-11-19T03:45:34;94559.63;;;2.79;70.84
62978;BME280;49073;42.352;23.808;2023-11-19T03:48:36;94555.31;;;2.74;71.07
62978;BME280;49073;42.352;23.808;2023-11-19T03:51:37;94543.53;;;2.71;71.32
62978;BME280;49073;42.352;23.808;2023-11-19T03:54:37;94537.94;;;2.64;71.36
62978;BME280;49073;42.352;23.808;2023-11-19T03:57:38;94530.81;;;2.65;71.26
62978;BME280;49073;42.352;23.808;2023-11-19T04:00:39;94542.22;;;2.51;71.23
62978;BME280;49073;42.352;23.808;2023-11-19T04:03:40;94542.53;;;2.50;71.83
62978;BME280;49073;42.352;23.808;2023-11-19T04:06:41;94552.59;;;2.47;70.90
62978;BME280;49073;42.352;23.808;2023-11-19T04:09:42;94562.63;;;2.45;71.28
62978;BME280;49073;42.352;23.808;2023-11-19T04:12:42;94561.56;;;2.46;71.03
62978;BME280;49073;42.352;23.808;2023-11-19T04:15:43;94551.78;;;2.38;71.50
62978;BME280;49073;42.352;23.808;2023-11-19T04:18:43;94557.50;;;2.40;71.77
62978;BME280;49073;42.352;23.808;2023-11-19T04:21:44;94544.13;;;2.28;72.61
62978;BME280;49073;42.352;23.808;2023-11-19T04:24:45;94539.66;;;2.28;72.54
62978;BME280;49073;42.352;23.808;2023-11-19T04:27:45;94547.56;;;2.28;72.23
62978;BME280;49073;42.352;23.808;2023-11-19T04:30:47;94559.31;;;2.31;71.93
62978;BME280;49073;42.352;23.808;2023-11-19T04:33:48;94552.47;;;2.21;72.38
62978;BME280;49073;42.352;23.808;2023-11-19T04:36:48;94571.63;;;2.22;72.36
62978;BME280;49073;42.352;23.808;2023-11-19T04:39:49;94571.34;;;2.23;72.04
62978;BME280;49073;42.352;23.808;2023-11-19T04:42:49;94579.25;;;2.23;72.04
62978;BME280;49073;42.352;23.808;2023-11-19T04:45:51;94581.56;;;2.25;71.88
62978;BME280;49073;42.352;23.808;2023-11-19T04:48:51;94598.41;;;2.24;72.29
62978;BME280;49073;42.352;23.808;2023-11-19T04:51:52;94594.22;;;2.23;71.68
62978;BME280;49073;42.352;23.808;2023-11-19T04:54:53;94587.00;;;2.28;71.73
62978;BME280;49073;42.352;23.808;2023-11-19T04:57:54;94591.94;;;2.30;72.03
62978;BME280;49073;42.352;23.808;2023-11-19T05:00:54;94595.03;;;2.32;71.66
62978;BME280;49073;42.352;23.808;2023-11-19T05:03:55;94594.28;;;2.31;71.48
62978;BME280;49073;42.352;23.808;2023-11-19T05:06:57;94588.41;;;2.35;71.45
62978;BME280;49073;42.352;23.808;2023-11-19T05:09:59;94592.47;;;2.41;71.73
62978;BME280;49073;42.352;23.808;2023-11-19T05:13:00;94605.47;;;2.46;71.38
62978;BME280;49073;42.352;23.808;2023-11-19T05:16:00;94604.38;;;2.38;71.31
62978;BME280;49073;42.352;23.808;2023-11-19T05:19:01;94608.25;;;2.41;71.40
62978;BME280;49073;42.352;23.808;2023-11-19T05:22:01;94611.81;;;2.45;71.22
62978;BME280;49073;42.352;23.808;2023-11-19T05:25:01;94607.63;;;2.44;71.34
62978;BME280;49073;42.352;23.808;2023-11-19T05:28:03;94611.81;;;2.45;71.82
62978;BME280;49073;42.352;23.808;2023-11-19T05:31:03;94619.22;;;2.43;71.54
62978;BME280;49073;42.352;23.808;2023-11-19T05:34:04;94637.34;;;2.44;71.31
62978;BME280;49073;42.352;23.808;2023-11-19T05:37:04;94619.41;;;2.46;71.32
62978;BME280;49073;42.352;23.808;2023-11-19T05:40:06;94622.66;;;2.43;71.22
62978;BME280;49073;42.352;23.808;2023-11-19T05:43:14;94626.22;;;2.47;71.63
62978;BME280;49073;42.352;23.808;2023-11-19T05:46:16;94613.09;;;2.47;71.59
62978;BME280;49073;42.352;23.808;2023-11-19T05:49:17;94619.88;;;2.49;71.60
62978;BME280;49073;42.352;23.808;2023-11-19T05:52:18;94620.84;;;2.53;70.78
62978;BME280;49073;42.352;23.808;2023-11-19T05:55:18;94616.81;;;2.55;71.18
62978;BME280;49073;42.352;23.808;2023-11-19T05:58:19;94603.03;;;2.50;71.59
62978;BME280;49073;42.352;23.808;2023-11-19T06:01:19;94619.56;;;2.50;72.07
62978;BME280;49073;42.352;23.808;2023-11-19T06:04:20;94629.34;;;2.50;71.58
62978;BME280;49073;42.352;23.808;2023-11-19T06:07:21;94615.72;;;2.47;71.24
62978;BME280;49073;42.352;23.808;2023-11-19T06:10:21;94609.50;;;2.43;71.70
62978;BME280;49073;42.352;23.808;2023-11-19T06:13:22;94619.22;;;2.43;71.81
62978;BME280;49073;42.352;23.808;2023-11-19T06:16:22;94630.09;;;2.50;71.12
62978;BME280;49073;42.352;23.808;2023-11-19T06:19:23;94638.59;;;2.47;71.40
62978;BME280;49073;42.352;23.808;2023-11-19T06:22:25;94652.69;;;2.51;71.54
62978;BME280;49073;42.352;23.808;2023-11-19T06:25:25;94652.09;;;2.54;71.26
62978;BME280;49073;42.352;23.808;2023-11-19T06:28:26;94659.97;;;2.54;70.63
62978;BME280;49073;42.352;23.808;2023-11-19T06:31:26;94663.41;;;2.55;69.87
62978;BME280;49073;42.352;23.808;2023-11-19T06:34:27;94661.53;;;2.55;69.41
62978;BME280;49073;42.352;23.808;2023-11-19T06:37:27;94660.63;;;2.60;70.15
62978;BME280;49073;42.352;23.808;2023-11-19T06:40:29;94666.78;;;2.55;70.31
62978;BME280;49073;42.352;23.808;2023-11-19T06:43:30;94659.69;;;2.56;69.92
62978;BME280;49073;42.352;23.808;2023-11-19T06:46:30;94653.34;;;2.57;69.77
62978;BME280;49073;42.352;23.808;2023-11-19T06:49:31;94644.53;;;2.61;69.77
62978;BME280;49073;42.352;23.808;2023-11-19T06:52:31;94643.28;;;2.59;68.86
62978;BME280;49073;42.352;23.808;2023-11-19T06:55:32;94645.53;;;2.74;68.80
62978;BME280;49073;42.352;23.808;2023-11-19T06:58:35;94651.16;;;2.90;68.79
62978;BME280;49073;42.352;23.808;2023-11-19T07:01:36;94650.84;;;2.92;68.13
62978;BME280;49073;42.352;23.808;2023-11-19T07:04:36;94658.63;;;2.97;68.23
62978;BME280;49073;42.352;23.808;2023-11-19T07:07:37;94670.28;;;3.14;68.49
62978;BME280;49073;42.352;23.808;2023-11-19T07:10:37;94682.06;;;3.08;68.09
62978;BME280;49073;42.352;23.808;2023-11-19T07:13:38;94683.13;;;3.07;68.09
62978;BME280;49073;42.352;23.808;2023-11-19T07:16:39;94670.59;;;3.12;67.50
62978;BME280;49073;42.352;23.808;2023-11-19T07:19:39;94676.50;;;3.18;68.32
62978;BME280;49073;42.352;23.808;2023-11-19T07:22:39;94688.13;;;3.17;67.80
62978;BME280;49073;42.352;23.808;2023-11-19T07:25:40;94699.06;;;3.10;67.93
62978;BME280;49073;42.352;23.808;2023-11-19T07:28:40;94701.09;;;3.04;67.65
62978;BME280;49073;42.352;23.808;2023-11-19T07:31:41;94706.97;;;3.01;68.51
62978;BME280;49073;42.352;23.808;2023-11-19T07:34:41;94713.47;;;3.04;68.75
62978;BME280;49073;42.352;23.808;2023-11-19T07:37:42;94708.19;;;2.95;68.37
62978;BME280;49073;42.352;23.808;2023-11-19T07:40:42;94714.03;;;2.92;68.31
62978;BME280;49073;42.352;23.808;2023-11-19T07:43:43;94721.09;;;2.83;68.78
62978;BME280;49073;42.352;23.808;2023-11-19T07:46:44;94717.69;;;2.82;69.15
62978;BME280;49073;42.352;23.808;2023-11-19T07:49:45;94731.72;;;2.69;68.72
62978;BME280;49073;42.352;23.808;2023-11-19T07:52:48;94732.06;;;2.76;69.09
62978;BME280;49073;42.352;23.808;2023-11-19T07:55:48;94726.00;;;2.75;68.75
62978;BME280;49073;42.352;23.808;2023-11-19T07:58:49;94731.13;;;2.72;68.68
62978;BME280;49073;42.352;23.808;2023-11-19T08:01:49;94730.34;;;2.71;69.06
62978;BME280;49073;42.352;23.808;2023-11-19T08:04:50;94745.81;;;2.73;68.89
62978;BME280;49073;42.352;23.808;2023-11-19T08:07:52;94731.13;;;2.72;69.41
62978;BME280;49073;42.352;23.808;2023-11-19T08:10:53;94743.63;;;2.66;69.36
62978;BME280;49073;42.352;23.808;2023-11-19T08:13:54;94745.56;;;2.60;68.86
62978;BME280;49073;42.352;23.808;2023-11-19T08:16:54;94742.91;;;2.52;69.07
62978;BME280;49073;42.352;23.808;2023-11-19T08:19:54;94745.69;;;2.55;69.02
62978;BME280;49073;42.352;23.808;2023-11-19T08:22:55;94742.78;;;2.57;68.36
62978;BME280;49073;42.352;23.808;2023-11-19T08:25:55;94742.34;;;2.64;69.40
62978;BME280;49073;42.352;23.808;2023-11-19T08:28:56;94751.03;;;2.64;68.54
62978;BME280;49073;42.352;23.808;2023-11-19T08:31:58;94754.00;;;2.71;68.82
62978;BME280;49073;42.352;23.808;2023-11-19T08:35:00;94744.66;;;2.88;68.82
62978;BME280;49073;42.352;23.808;2023-11-19T08:38:00;94747.59;;;2.86;68.26
62978;BME280;49073;42.352;23.808;2023-11-19T08:41:01;94731.34;;;2.84;67.96
62978;BME280;49073;42.352;23.808;2023-11-19T08:44:02;94729.22;;;2.95;67.67
62978;BME280;49073;42.352;23.808;2023-11-19T08:47:02;94737.97;;;3.13;67.77
62978;BME280;49073;42.352;23.808;2023-11-19T08:50:03;94736.94;;;3.23;67.42
62978;BME280;49073;42.352;23.808;2023-11-19T08:53:04;94758.19;;;3.35;66.90
62978;BME280;49073;42.352;23.808;2023-11-19T08:56:06;94753.06;;;3.30;66.08
62978;BME280;49073;42.352;23.808;2023-11-19T08:59:07;94746.41;;;3.33;65.22
62978;BME280;49073;42.352;23.808;2023-11-19T09:02:08;94744.56;;;3.33;65.04
62978;BME280;49073;42.352;23.808;2023-11-19T09:05:09;94741.91;;;3.33;64.17
62978;BME280;49073;42.352;23.808;2023-11-19T09:08:09;94760.81;;;3.35;64.53
62978;BME280;49073;42.352;23.808;2023-11-19T09:11:11;94763.78;;;4.01;63.54
62978;BME280;49073;42.352;23.808;2023-11-19T09:14:12;94769.56;;;4.47;61.86
62978;BME280;49073;42.352;23.808;2023-11-19T09:17:12;94744.41;;;4.49;60.13
62978;BME280;49073;42.352;23.808;2023-11-19T09:20:13;94744.31;;;4.93;60.92
62978;BME280;49073;42.352;23.808;2023-11-19T09:23:15;94748.31;;;5.17;58.59
62978;BME280;49073;42.352;23.808;2023-11-19T09:26:15;94747.03;;;5.32;59.08
62978;BME280;49073;42.352;23.808;2023-11-19T09:29:16;94729.06;;;5.47;57.85
62978;BME280;49073;42.352;23.808;2023-11-19T09:32:16;94732.63;;;5.51;57.18
62978;BME280;49073;42.352;23.808;2023-11-19T09:35:17;94734.13;;;5.22;56.18
62978;BME280;49073;42.352;23.808;2023-11-19T09:38:17;94738.94;;;5.59;57.47
62978;BME280;49073;42.352;23.808;2023-11-19T09:41:17;94752.91;;;5.68;56.62
62978;BME280;49073;42.352;23.808;2023-11-19T09:44:19;94757.22;;;5.43;56.02
62978;BME280;49073;42.352;23.808;2023-11-19T09:47:20;94756.25;;;5.08;56.29
62978;BME280;49073;42.352;23.808;2023-11-19T09:50:21;94744.59;;;5.09;56.29
62978;BME280;49073;42.352;23.808;2023-11-19T09:53:21;94746.69;;;5.34;56.89
62978;BME280;49073;42.352;23.808;2023-11-19T09:56:22;94759.16;;;5.63;56.74
62978;BME280;49073;42.352;23.808;2023-11-19T09:59:23;94751.16;;;5.42;55.13
62978;BME280;49073;42.352;23.808;2023-11-19T10:02:23;94744.47;;;5.45;55.88
62978;BME280;49073;42.352;23.808;2023-11-19T10:05:24;94742.97;;;5.65;55.44
62978;BME280;49073;42.352;23.808;2023-11-19T10:08:26;94734.59;;;5.84;55.01
62978;BME280;49073;42.352;23.808;2023-11-19T10:11:26;94734.69;;;5.75;55.14
62978;BME280;49073;42.352;23.808;2023-11-19T10:14:28;94726.59;;;5.72;54.50
62978;BME280;49073;42.352;23.808;2023-11-19T10:17:28;94726.59;;;5.72;54.56
62978;BME280;49073;42.352;23.808;2023-11-19T10:20:35;94706.81;;;5.78;54.42
62978;BME280;49073;42.352;23.808;2023-11-19T10:23:56;94691.38;;;5.80;53.67
62978;BME280;49073;42.352;23.808;2023-11-19T10:27:00;94687.16;;;5.88;54.21
62978;BME280;49073;42.352;23.808;2023-11-19T10:30:03;94687.00;;;5.84;53.84
62978;BME280;49073;42.352;23.808;2023-11-19T10:33:12;94680.38;;;5.78;53.73
62978;BME280;49073;42.352;23.808;2023-11-19T10:36:17;94694.13;;;5.92;54.47
62978;BME280;49073;42.352;23.808;2023-11-19T10:39:18;94698.88;;;5.78;53.34
62978;BME280;49073;42.352;23.808;2023-11-19T10:42:18;94681.72;;;5.84;54.29
62978;BME280;49073;42.352;23.808;2023-11-19T10:45:22;94688.78;;;6.01;53.54
62978;BME280;49073;42.352;23.808;2023-11-19T10:48:23;94694.00;;;6.10;54.25
62978;BME280;49073;42.352;23.808;2023-11-19T10:51:25;94691.88;;;6.03;53.96
62978;BME280;49073;42.352;23.808;2023-11-19T10:54:25;94671.69;;;5.99;54.80
62978;BME280;49073;42.352;23.808;2023-11-19T10:57:26;94647.94;;;6.11;54.26
62978;BME280;49073;42.352;23.808;2023-11-19T11:00:30;94659.66;;;6.22;54.63
62978;BME280;49073;42.352;23.808;2023-11-19T11:03:35;94650.78;;;6.27;53.70
62978;BME280;49073;42.352;23.808;2023-11-19T11:06:39;94650.66;;;6.36;53.74
62978;BME280;49073;42.352;23.808;2023-11-19T11:09:40;94642.31;;;6.46;54.02
62978;BME280;49073;42.352;23.808;2023-11-19T11:12:41;94634.72;;;6.45;53.87
62978;BME280;49073;42.352;23.808;2023-11-19T11:15:44;94637.31;;;6.66;52.71
62978;BME280;49073;42.352;23.808;2023-11-19T11:18:46;94640.81;;;6.58;53.23
62978;BME280;49073;42.352;23.808;2023-11-19T11:21:50;94644.00;;;6.63;52.56
62978;BME280;49073;42.352;23.808;2023-11-19T11:31:36;94638.63;;;6.84;52.18
62978;BME280;49073;42.352;23.808;2023-11-19T11:38:00;94642.75;;;6.82;52.27
62978;BME280;49073;42.352;23.808;2023-11-19T11:41:17;94636.91;;;7.13;51.24
62978;BME280;49073;42.352;23.808;2023-11-19T11:44:30;94639.66;;;6.92;51.11
62978;BME280;49073;42.352;23.808;2023-11-19T11:50:47;94638.44;;;6.90;51.44
62978;BME280;49073;42.352;23.808;2023-11-19T11:53:48;94627.94;;;6.93;51.43
62978;BME280;49073;42.352;23.808;2023-11-19T11:57:08;94628.72;;;6.81;50.63
62978;BME280;49073;42.352;23.808;2023-11-19T12:00:10;94621.19;;;6.83;52.25
62978;BME280;49073;42.352;23.808;2023-11-19T12:03:11;94617.91;;;6.87;51.58
62978;BME280;49073;42.352;23.808;2023-11-19T12:06:11;94629.06;;;6.92;52.82
62978;BME280;49073;42.352;23.808;2023-11-19T12:09:11;94627.38;;;6.75;52.37
62978;BME280;49073;42.352;23.808;2023-11-19T12:12:17;94630.34;;;6.74;52.47
62978;BME280;49073;42.352;23.808;2023-11-19T12:15:19;94627.16;;;6.93;52.48
62978;BME280;49073;42.352;23.808;2023-11-19T12:18:26;94617.91;;;6.87;52.29
62978;BME280;49073;42.352;23.808;2023-11-19T12:21:27;94629.59;;;6.98;52.59
62978;BME280;49073;42.352;23.808;2023-11-19T12:24:28;94620.88;;;6.85;51.64
62978;BME280;49073;42.352;23.808;2023-11-19T12:27:29;94624.41;;;7.02;51.80
62978;BME280;49073;42.352;23.808;2023-11-19T12:30:29;94604.88;;;6.94;50.87
62978;BME280;49073;42.352;23.808;2023-11-19T12:33:30;94607.53;;;6.94;51.44
62978;BME280;49073;42.352;23.808;2023-11-19T12:36:30;94599.69;;;6.85;50.91
62978;BME280;49073;42.352;23.808;2023-11-19T12:39:31;94599.13;;;6.92;51.22
62978;BME280;49073;42.352;23.808;2023-11-19T12:42:35;94590.06;;;6.93;50.70
62978;BME280;49073;42.352;23.808;2023-11-19T12:45:36;94602.00;;;6.87;50.79
62978;BME280;49073;42.352;23.808;2023-11-19T12:48:37;94591.31;;;6.83;51.38
62978;BME280;49073;42.352;23.808;2023-11-19T12:51:37;94581.69;;;6.66;50.89
62978;BME280;49073;42.352;23.808;2023-11-19T12:54:37;94574.84;;;6.65;51.22
62978;BME280;49073;42.352;23.808;2023-11-19T12:57:40;94562.91;;;6.46;51.43
62978;BME280;49073;42.352;23.808;2023-11-19T13:00:41;94582.22;;;6.47;51.14
62978;BME280;49073;42.352;23.808;2023-11-19T13:03:41;94549.88;;;6.41;51.37
62978;BME280;49073;42.352;23.808;2023-11-19T13:06:47;94567.22;;;6.38;50.78
62978;BME280;49073;42.352;23.808;2023-11-19T13:09:48;94554.19;;;6.33;50.88
62978;BME280;49073;42.352;23.808;2023-11-19T13:16:02;94567.41;;;6.33;51.63
62978;BME280;49073;42.352;23.808;2023-11-19T13:19:03;94564.53;;;6.26;52.12
62978;BME280;49073;42.352;23.808;2023-11-19T13:22:03;94564.09;;;6.24;51.76
62978;BME280;49073;42.352;23.808;2023-11-19T13:25:04;94556.56;;;6.14;52.20
62978;BME280;49073;42.352;23.808;2023-11-19T13:28:05;94560.84;;;6.06;52.54
62978;BME280;49073;42.352;23.808;2023-11-19T13:31:06;94563.16;;;6.07;53.24
62978;BME280;49073;42.352;23.808;2023-11-19T13:34:06;94562.19;;;6.12;51.96
62978;BME280;49073;42.352;23.808;2023-11-19T13:37:08;94547.22;;;6.16;52.56
62978;BME280;49073;42.352;23.808;2023-11-19T13:40:09;94535.50;;;6.05;52.49
62978;BME280;49073;42.352;23.808;2023-11-19T13:43:09;94519.69;;;5.96;52.93
62978;BME280;49073;42.352;23.808;2023-11-19T13:46:11;94526.84;;;5.95;53.34
62978;BME280;49073;42.352;23.808;2023-11-19T13:49:12;94530.25;;;5.96;53.90
62978;BME280;49073;42.352;23.808;2023-11-19T13:52:12;94523.75;;;5.93;53.57
62978;BME280;49073;42.352;23.808;2023-11-19T13:55:13;94534.53;;;5.88;53.26
62978;BME280;49073;42.352;23.808;2023-11-19T13:58:13;94528.03;;;5.86;53.56
62978;BME280;49073;42.352;23.808;2023-11-19T14:01:14;94532.75;;;5.80;53.54
62978;BME280;49073;42.352;23.808;2023-11-19T14:04:14;94545.97;;;5.80;53.91
62978;BME280;49073;42.352;23.808;2023-11-19T14:07:15;94544.31;;;5.75;53.67
62978;BME280;49073;42.352;23.808;2023-11-19T14:10:15;94543.47;;;5.62;53.57
62978;BME280;49073;42.352;23.808;2023-11-19T14:13:16;94545.47;;;5.65;53.65
62978;BME280;49073;42.352;23.808;2023-11-19T14:16:16;94542.72;;;5.62;53.59
62978;BME280;49073;42.352;23.808;2023-11-19T14:19:16;94555.59;;;5.63;52.99
62978;BME280;49073;42.352;23.808;2023-11-19T14:22:17;94557.47;;;5.63;52.52
62978;BME280;49073;42.352;23.808;2023-11-19T14:25:17;94557.34;;;5.59;52.71
62978;BME280;49073;42.352;23.808;2023-11-19T14:28:18;94567.22;;;5.50;52.64
62978;BME280;49073;42.352;23.808;2023-11-19T14:31:19;94582.63;;;5.48;52.95
62978;BME280;49073;42.352;23.808;2023-11-19T14:34:20;94578.63;;;5.42;53.34
62978;BME280;49073;42.352;23.808;2023-11-19T14:37:20;94583.91;;;5.42;53.22
62978;BME280;49073;42.352;23.808;2023-11-19T14:40:20;94594.22;;;5.34;52.98
62978;BME280;49073;42.352;23.808;2023-11-19T14:43:21;94592.06;;;5.28;52.84
62978;BME280;49073;42.352;23.808;2023-11-19T14:46:22;94598.31;;;5.23;52.43
62978;BME280;49073;42.352;23.808;2023-11-19T14:49:22;94602.69;;;5.19;52.46
62978;BME280;49073;42.352;23.808;2023-11-19T14:52:23;94598.03;;;5.16;52.66
62978;BME280;49073;42.352;23.808;2023-11-19T14:55:24;94597.47;;;5.10;52.78
62978;BME280;49073;42.352;23.808;2023-11-19T14:58:24;94584.56;;;5.08;52.90
62978;BME280;49073;42.352;23.808;2023-11-19T15:01:26;94582.75;;;5.00;53.33
62978;BME280;49073;42.352;23.808;2023-11-19T15:04:27;94583.13;;;4.90;53.82
62978;BME280;49073;42.352;23.808;2023-11-19T15:07:27;94589.16;;;4.90;53.48
62978;BME280;49073;42.352;23.808;2023-11-19T15:10:28;94580.03;;;4.88;53.81
62978;BME280;49073;42.352;23.808;2023-11-19T15:13:28;94579.56;;;4.86;53.75
62978;BME280;49073;42.352;23.808;2023-11-19T15:16:29;94576.94;;;4.86;53.51
62978;BME280;49073;42.352;23.808;2023-11-19T15:19:34;94594.16;;;4.83;53.57
62978;BME280;49073;42.352;23.808;2023-11-19T15:22:35;94601.16;;;4.88;53.52
62978;BME280;49073;42.352;23.808;2023-11-19T15:25:35;94601.00;;;4.84;53.75
62978;BME280;49073;42.352;23.808;2023-11-19T15:28:37;94598.34;;;4.84;53.62
62978;BME280;49073;42.352;23.808;2023-11-19T15:31:37;94601.91;;;4.88;53.45
62978;BME280;49073;42.352;23.808;2023-11-19T15:34:37;94601.97;;;4.79;53.55
62978;BME280;49073;42.352;23.808;2023-11-19T15:37:39;94593.41;;;4.83;53.32
62978;BME280;49073;42.352;23.808;2023-11-19T15:40:41;94587.53;;;4.77;53.68
62978;BME280;49073;42.352;23.808;2023-11-19T15:43:43;94585.78;;;4.81;53.05
62978;BME280;49073;42.352;23.808;2023-11-19T15:46:43;94598.69;;;4.83;52.96
62978;BME280;49073;42.352;23.808;2023-11-19T15:49:44;94595.25;;;4.82;52.84
62978;BME280;49073;42.352;23.808;2023-11-19T15:52:45;94600.38;;;4.87;52.24
62978;BME280;49073;42.352;23.808;2023-11-19T15:55:45;94582.66;;;4.88;52.56
62978;BME280;49073;42.352;23.808;2023-11-19T15:58:46;94579.69;;;4.89;51.55
62978;BME280;49073;42.352;23.808;2023-11-19T16:01:46;94576.28;;;4.89;51.55
62978;BME280;49073;42.352;23.808;2023-11-19T16:04:46;94582.66;;;4.88;51.38
62978;BME280;49073;42.352;23.808;2023-11-19T16:07:51;94571.97;;;4.84;51.87
62978;BME280;49073;42.352;23.808;2023-11-19T16:10:51;94559.84;;;4.83;51.89
62978;BME280;49073;42.352;23.808;2023-11-19T16:13:51;94570.28;;;4.79;51.92
62978;BME280;49073;42.352;23.808;2023-11-19T16:16:52;94579.31;;;4.78;51.72